sensor_id;sensor_type;location;lat;lon;timestamp;temperature;humidity
66835;HTU21D;53743;51.100;5.874;2023-03-19T00:00:41;13.05;88.60
66835;HTU21D;53743;51.100;5.874;2023-03-19T00:01:42;13.05;88.55
66835;HTU21D;53743;51.100;5.874;2023-03-19T00:02:44;13.06;88.31
66835;HTU21D;53743;51.100;5.874;2023-03-19T00:03:49;13.05;88.41
66835;HTU21D;53743;51.100;5.874;2023-03-19T00:04:51;13.04;88.30
66835;HTU21D;53743;51.100;5.874;2023-03-19T00:05:51;13.04;88.42
66835;HTU21D;53743;51.100;5.874;2023-03-19T00:06:53;13.04;88.60
66835;HTU21D;53743;51.100;5.874;2023-03-19T00:07:54;13.03;88.33
66835;HTU21D;53743;51.100;5.874;2023-03-19T00:08:56;13.03;88.31
66835;HTU21D;53743;51.100;5.874;2023-03-19T00:09:58;13.02;88.38
66835;HTU21D;53743;51.100;5.874;2023-03-19T00:11:05;13.01;88.29
66835;HTU21D;53743;51.100;5.874;2023-03-19T00:12:06;13.02;88.35
66835;HTU21D;53743;51.100;5.874;2023-03-19T00:13:09;13.00;88.39
66835;HTU21D;53743;51.100;5.874;2023-03-19T00:14:10;13.00;88.28
66835;HTU21D;53743;51.100;5.874;2023-03-19T00:15:11;12.96;88.26
66835;HTU21D;53743;51.100;5.874;2023-03-19T00:16:13;12.94;88.31
66835;HTU21D;53743;51.100;5.874;2023-03-19T00:17:15;12.91;88.41
66835;HTU21D;53743;51.100;5.874;2023-03-19T00:18:16;12.92;88.13
66835;HTU21D;53743;51.100;5.874;2023-03-19T00:19:18;12.92;87.94
66835;HTU21D;53743;51.100;5.874;2023-03-19T00:20:18;12.92;88.18
66835;HTU21D;53743;51.100;5.874;2023-03-19T00:21:21;12.92;87.91
66835;HTU21D;53743;51.100;5.874;2023-03-19T00:22:22;12.89;87.89
66835;HTU21D;53743;51.100;5.874;2023-03-19T00:23:24;12.87;88.42
66835;HTU21D;53743;51.100;5.874;2023-03-19T00:24:25;12.85;88.21
66835;HTU21D;53743;51.100;5.874;2023-03-19T00:25:28;12.85;88.57
66835;HTU21D;53743;51.100;5.874;2023-03-19T00:26:30;12.87;88.51
66835;HTU21D;53743;51.100;5.874;2023-03-19T00:27:32;12.86;88.63
66835;HTU21D;53743;51.100;5.874;2023-03-19T00:28:34;12.86;88.63
66835;HTU21D;53743;51.100;5.874;2023-03-19T00:29:36;12.85;88.36
66835;HTU21D;53743;51.100;5.874;2023-03-19T00:30:38;12.85;88.34
66835;HTU21D;53743;51.100;5.874;2023-03-19T00:31:40;12.81;88.22
66835;HTU21D;53743;51.100;5.874;2023-03-19T00:32:42;12.80;88.29
66835;HTU21D;53743;51.100;5.874;2023-03-19T00:33:43;12.80;88.45
66835;HTU21D;53743;51.100;5.874;2023-03-19T00:34:45;12.79;88.23
66835;HTU21D;53743;51.100;5.874;2023-03-19T00:35:46;12.78;87.94
66835;HTU21D;53743;51.100;5.874;2023-03-19T00:36:47;12.78;88.07
66835;HTU21D;53743;51.100;5.874;2023-03-19T00:37:48;12.76;87.83
66835;HTU21D;53743;51.100;5.874;2023-03-19T00:38:51;12.73;88.11
66835;HTU21D;53743;51.100;5.874;2023-03-19T00:39:51;12.74;87.83
66835;HTU21D;53743;51.100;5.874;2023-03-19T00:40:54;12.75;87.85
66835;HTU21D;53743;51.100;5.874;2023-03-19T00:41:55;12.75;87.81
66835;HTU21D;53743;51.100;5.874;2023-03-19T00:42:58;12.74;88.22
66835;HTU21D;53743;51.100;5.874;2023-03-19T00:43:58;12.75;88.30
66835;HTU21D;53743;51.100;5.874;2023-03-19T00:45:04;12.76;88.37
66835;HTU21D;53743;51.100;5.874;2023-03-19T00:46:07;12.76;88.32
66835;HTU21D;53743;51.100;5.874;2023-03-19T00:47:09;12.77;88.17
66835;HTU21D;53743;51.100;5.874;2023-03-19T00:48:10;12.78;88.11
66835;HTU21D;53743;51.100;5.874;2023-03-19T00:49:12;12.80;88.18
66835;HTU21D;53743;51.100;5.874;2023-03-19T00:50:13;12.80;88.31
66835;HTU21D;53743;51.100;5.874;2023-03-19T00:51:15;12.82;88.23
66835;HTU21D;53743;51.100;5.874;2023-03-19T00:52:16;12.84;88.12
66835;HTU21D;53743;51.100;5.874;2023-03-19T00:53:18;12.84;88.09
66835;HTU21D;53743;51.100;5.874;2023-03-19T00:54:19;12.86;87.77
66835;HTU21D;53743;51.100;5.874;2023-03-19T00:55:21;12.85;87.78
66835;HTU21D;53743;51.100;5.874;2023-03-19T00:56:23;12.86;87.93
66835;HTU21D;53743;51.100;5.874;2023-03-19T00:57:27;12.87;87.72
66835;HTU21D;53743;51.100;5.874;2023-03-19T00:58:28;12.88;87.49
66835;HTU21D;53743;51.100;5.874;2023-03-19T00:59:30;12.87;87.57
66835;HTU21D;53743;51.100;5.874;2023-03-19T01:00:31;12.85;87.51
66835;HTU21D;53743;51.100;5.874;2023-03-19T01:01:33;12.85;87.31
66835;HTU21D;53743;51.100;5.874;2023-03-19T01:02:35;12.82;87.38
66835;HTU21D;53743;51.100;5.874;2023-03-19T01:03:36;12.79;87.71
66835;HTU21D;53743;51.100;5.874;2023-03-19T01:04:39;12.77;87.75
66835;HTU21D;53743;51.100;5.874;2023-03-19T01:05:39;12.76;87.62
66835;HTU21D;53743;51.100;5.874;2023-03-19T01:06:41;12.76;87.54
66835;HTU21D;53743;51.100;5.874;2023-03-19T01:07:42;12.76;87.60
66835;HTU21D;53743;51.100;5.874;2023-03-19T01:08:44;12.77;87.83
66835;HTU21D;53743;51.100;5.874;2023-03-19T01:09:45;12.80;87.62
66835;HTU21D;53743;51.100;5.874;2023-03-19T01:10:47;12.80;87.60
66835;HTU21D;53743;51.100;5.874;2023-03-19T01:11:49;12.82;87.83
66835;HTU21D;53743;51.100;5.874;2023-03-19T01:12:51;12.81;87.74
66835;HTU21D;53743;51.100;5.874;2023-03-19T01:13:52;12.84;87.66
66835;HTU21D;53743;51.100;5.874;2023-03-19T01:14:54;12.84;87.92
66835;HTU21D;53743;51.100;5.874;2023-03-19T01:15:55;12.85;87.86
66835;HTU21D;53743;51.100;5.874;2023-03-19T01:16:57;12.86;87.73
66835;HTU21D;53743;51.100;5.874;2023-03-19T01:17:58;12.88;88.03
66835;HTU21D;53743;51.100;5.874;2023-03-19T01:19:01;12.89;87.99
66835;HTU21D;53743;51.100;5.874;2023-03-19T01:20:03;12.90;88.00
66835;HTU21D;53743;51.100;5.874;2023-03-19T01:21:08;12.90;88.20
66835;HTU21D;53743;51.100;5.874;2023-03-19T01:22:17;12.91;88.06
66835;HTU21D;53743;51.100;5.874;2023-03-19T01:23:26;12.90;87.97
66835;HTU21D;53743;51.100;5.874;2023-03-19T01:24:28;12.92;87.80
66835;HTU21D;53743;51.100;5.874;2023-03-19T01:25:30;12.92;88.08
66835;HTU21D;53743;51.100;5.874;2023-03-19T01:26:35;12.92;87.88
66835;HTU21D;53743;51.100;5.874;2023-03-19T01:27:51;12.94;88.21
66835;HTU21D;53743;51.100;5.874;2023-03-19T01:28:52;12.95;87.99
66835;HTU21D;53743;51.100;5.874;2023-03-19T01:29:55;12.96;88.23
66835;HTU21D;53743;51.100;5.874;2023-03-19T01:31:19;12.97;88.38
66835;HTU21D;53743;51.100;5.874;2023-03-19T01:32:47;12.97;87.89
66835;HTU21D;53743;51.100;5.874;2023-03-19T01:34:09;12.97;88.19
66835;HTU21D;53743;51.100;5.874;2023-03-19T01:35:17;12.97;88.35
66835;HTU21D;53743;51.100;5.874;2023-03-19T01:36:19;13.01;88.17
66835;HTU21D;53743;51.100;5.874;2023-03-19T01:37:30;12.99;88.31
66835;HTU21D;53743;51.100;5.874;2023-03-19T01:38:33;12.97;88.31
66835;HTU21D;53743;51.100;5.874;2023-03-19T01:39:39;12.97;88.07
66835;HTU21D;53743;51.100;5.874;2023-03-19T01:40:44;12.96;88.37
66835;HTU21D;53743;51.100;5.874;2023-03-19T01:41:47;12.97;88.09
66835;HTU21D;53743;51.100;5.874;2023-03-19T01:43:24;12.97;88.06
66835;HTU21D;53743;51.100;5.874;2023-03-19T01:44:34;12.96;87.96
66835;HTU21D;53743;51.100;5.874;2023-03-19T01:45:57;12.95;88.61
66835;HTU21D;53743;51.100;5.874;2023-03-19T01:47:29;12.92;88.10
66835;HTU21D;53743;51.100;5.874;2023-03-19T01:48:45;12.92;88.08
66835;HTU21D;53743;51.100;5.874;2023-03-19T01:49:53;12.90;88.45
66835;HTU21D;53743;51.100;5.874;2023-03-19T01:50:57;12.88;88.41
66835;HTU21D;53743;51.100;5.874;2023-03-19T01:52:16;12.88;88.31
66835;HTU21D;53743;51.100;5.874;2023-03-19T01:53:36;12.84;88.35
66835;HTU21D;53743;51.100;5.874;2023-03-19T01:54:52;12.81;88.42
66835;HTU21D;53743;51.100;5.874;2023-03-19T01:56:28;12.80;88.64
66835;HTU21D;53743;51.100;5.874;2023-03-19T01:57:54;12.79;88.54
66835;HTU21D;53743;51.100;5.874;2023-03-19T01:59:14;12.80;88.55
66835;HTU21D;53743;51.100;5.874;2023-03-19T02:00:41;12.79;88.90
66835;HTU21D;53743;51.100;5.874;2023-03-19T02:01:49;12.78;88.51
66835;HTU21D;53743;51.100;5.874;2023-03-19T02:04:06;12.72;88.71
66835;HTU21D;53743;51.100;5.874;2023-03-19T02:05:12;12.72;88.58
66835;HTU21D;53743;51.100;5.874;2023-03-19T02:06:14;12.69;88.59
66835;HTU21D;53743;51.100;5.874;2023-03-19T02:07:17;12.69;88.70
66835;HTU21D;53743;51.100;5.874;2023-03-19T02:08:21;12.66;88.89
66835;HTU21D;53743;51.100;5.874;2023-03-19T02:09:26;12.64;88.94
66835;HTU21D;53743;51.100;5.874;2023-03-19T02:10:29;12.62;88.83
66835;HTU21D;53743;51.100;5.874;2023-03-19T02:11:32;12.60;88.77
66835;HTU21D;53743;51.100;5.874;2023-03-19T02:12:34;12.60;88.77
66835;HTU21D;53743;51.100;5.874;2023-03-19T02:13:36;12.57;88.98
66835;HTU21D;53743;51.100;5.874;2023-03-19T02:14:38;12.56;89.07
66835;HTU21D;53743;51.100;5.874;2023-03-19T02:15:40;12.51;89.17
66835;HTU21D;53743;51.100;5.874;2023-03-19T02:16:41;12.48;89.09
66835;HTU21D;53743;51.100;5.874;2023-03-19T02:17:43;12.47;89.30
66835;HTU21D;53743;51.100;5.874;2023-03-19T02:18:45;12.46;89.21
66835;HTU21D;53743;51.100;5.874;2023-03-19T02:19:52;12.46;89.34
66835;HTU21D;53743;51.100;5.874;2023-03-19T02:21:04;12.46;89.41
66835;HTU21D;53743;51.100;5.874;2023-03-19T02:22:10;12.46;89.17
66835;HTU21D;53743;51.100;5.874;2023-03-19T02:23:19;12.45;89.24
66835;HTU21D;53743;51.100;5.874;2023-03-19T02:24:32;12.46;89.44
66835;HTU21D;53743;51.100;5.874;2023-03-19T02:27:08;12.46;89.38
66835;HTU21D;53743;51.100;5.874;2023-03-19T02:28:14;12.45;89.79
66835;HTU21D;53743;51.100;5.874;2023-03-19T02:29:17;12.43;89.55
66835;HTU21D;53743;51.100;5.874;2023-03-19T02:30:23;12.44;89.68
66835;HTU21D;53743;51.100;5.874;2023-03-19T02:31:26;12.45;89.46
66835;HTU21D;53743;51.100;5.874;2023-03-19T02:32:27;12.46;89.44
66835;HTU21D;53743;51.100;5.874;2023-03-19T02:33:29;12.48;89.96
66835;HTU21D;53743;51.100;5.874;2023-03-19T02:34:38;12.48;89.77
66835;HTU21D;53743;51.100;5.874;2023-03-19T02:35:41;12.48;89.82
66835;HTU21D;53743;51.100;5.874;2023-03-19T02:36:48;12.51;89.50
66835;HTU21D;53743;51.100;5.874;2023-03-19T02:37:51;12.51;89.81
66835;HTU21D;53743;51.100;5.874;2023-03-19T02:38:56;12.51;89.62
66835;HTU21D;53743;51.100;5.874;2023-03-19T02:40:05;12.52;89.54
66835;HTU21D;53743;51.100;5.874;2023-03-19T02:41:09;12.49;90.32
66835;HTU21D;53743;51.100;5.874;2023-03-19T02:42:16;12.48;90.06
66835;HTU21D;53743;51.100;5.874;2023-03-19T02:43:19;12.51;89.86
66835;HTU21D;53743;51.100;5.874;2023-03-19T02:44:21;12.52;89.86
66835;HTU21D;53743;51.100;5.874;2023-03-19T02:45:27;12.53;89.79
66835;HTU21D;53743;51.100;5.874;2023-03-19T02:46:29;12.56;89.58
66835;HTU21D;53743;51.100;5.874;2023-03-19T02:47:30;12.57;89.93
66835;HTU21D;53743;51.100;5.874;2023-03-19T02:48:32;12.58;89.73
66835;HTU21D;53743;51.100;5.874;2023-03-19T02:49:32;12.58;89.52
66835;HTU21D;53743;51.100;5.874;2023-03-19T02:50:35;12.60;89.64
66835;HTU21D;53743;51.100;5.874;2023-03-19T02:51:36;12.61;89.78
66835;HTU21D;53743;51.100;5.874;2023-03-19T02:52:38;12.64;89.63
66835;HTU21D;53743;51.100;5.874;2023-03-19T02:53:39;12.65;89.68
66835;HTU21D;53743;51.100;5.874;2023-03-19T02:54:41;12.67;89.49
66835;HTU21D;53743;51.100;5.874;2023-03-19T02:55:41;12.70;89.47
66835;HTU21D;53743;51.100;5.874;2023-03-19T02:56:43;12.72;89.37
66835;HTU21D;53743;51.100;5.874;2023-03-19T02:57:47;12.75;89.70
66835;HTU21D;53743;51.100;5.874;2023-03-19T02:58:48;12.75;89.60
66835;HTU21D;53743;51.100;5.874;2023-03-19T02:59:49;12.77;89.42
66835;HTU21D;53743;51.100;5.874;2023-03-19T03:00:51;12.79;89.27
66835;HTU21D;53743;51.100;5.874;2023-03-19T03:01:52;12.81;89.45
66835;HTU21D;53743;51.100;5.874;2023-03-19T03:02:56;12.84;89.49
66835;HTU21D;53743;51.100;5.874;2023-03-19T03:03:58;12.84;89.15
66835;HTU21D;53743;51.100;5.874;2023-03-19T03:05:00;12.84;89.46
66835;HTU21D;53743;51.100;5.874;2023-03-19T03:06:01;12.86;89.13
66835;HTU21D;53743;51.100;5.874;2023-03-19T03:07:04;12.86;89.15
66835;HTU21D;53743;51.100;5.874;2023-03-19T03:08:05;12.88;89.11
66835;HTU21D;53743;51.100;5.874;2023-03-19T03:09:07;12.90;89.14
66835;HTU21D;53743;51.100;5.874;2023-03-19T03:10:09;12.92;88.74
66835;HTU21D;53743;51.100;5.874;2023-03-19T03:11:11;12.94;88.87
66835;HTU21D;53743;51.100;5.874;2023-03-19T03:12:12;12.96;89.00
66835;HTU21D;53743;51.100;5.874;2023-03-19T03:13:15;12.97;89.01
66835;HTU21D;53743;51.100;5.874;2023-03-19T03:14:17;12.95;89.33
66835;HTU21D;53743;51.100;5.874;2023-03-19T03:15:18;12.95;88.98
66835;HTU21D;53743;51.100;5.874;2023-03-19T03:16:21;12.94;89.04
66835;HTU21D;53743;51.100;5.874;2023-03-19T03:17:22;12.95;89.21
66835;HTU21D;53743;51.100;5.874;2023-03-19T03:18:24;12.94;89.53
66835;HTU21D;53743;51.100;5.874;2023-03-19T03:19:25;12.95;89.36
66835;HTU21D;53743;51.100;5.874;2023-03-19T03:20:27;12.95;89.68
66835;HTU21D;53743;51.100;5.874;2023-03-19T03:21:28;12.93;90.62
66835;HTU21D;53743;51.100;5.874;2023-03-19T03:22:30;12.92;89.97
66835;HTU21D;53743;51.100;5.874;2023-03-19T03:23:32;12.92;90.00
66835;HTU21D;53743;51.100;5.874;2023-03-19T03:24:33;12.91;90.59
66835;HTU21D;53743;51.100;5.874;2023-03-19T03:25:35;12.91;0.00
66835;HTU21D;53743;51.100;5.874;2023-03-19T03:26:37;12.90;90.15
66835;HTU21D;53743;51.100;5.874;2023-03-19T03:27:38;12.91;90.17
66835;HTU21D;53743;51.100;5.874;2023-03-19T03:28:42;12.93;90.37
66835;HTU21D;53743;51.100;5.874;2023-03-19T03:29:42;12.92;90.79
66835;HTU21D;53743;51.100;5.874;2023-03-19T03:30:45;12.91;90.44
66835;HTU21D;53743;51.100;5.874;2023-03-19T03:31:45;12.92;90.59
66835;HTU21D;53743;51.100;5.874;2023-03-19T03:32:47;12.93;90.38
66835;HTU21D;53743;51.100;5.874;2023-03-19T03:33:48;12.95;90.54
66835;HTU21D;53743;51.100;5.874;2023-03-19T03:34:50;12.95;90.67
66835;HTU21D;53743;51.100;5.874;2023-03-19T03:35:51;12.96;90.36
66835;HTU21D;53743;51.100;5.874;2023-03-19T03:36:53;12.97;90.60
66835;HTU21D;53743;51.100;5.874;2023-03-19T03:37:54;13.00;90.63
66835;HTU21D;53743;51.100;5.874;2023-03-19T03:38:56;13.00;90.54
66835;HTU21D;53743;51.100;5.874;2023-03-19T03:39:57;12.99;90.72
66835;HTU21D;53743;51.100;5.874;2023-03-19T03:40:59;12.99;90.75
66835;HTU21D;53743;51.100;5.874;2023-03-19T03:42:00;13.00;90.25
66835;HTU21D;53743;51.100;5.874;2023-03-19T03:43:04;13.01;90.47
66835;HTU21D;53743;51.100;5.874;2023-03-19T03:44:08;13.00;90.25
66835;HTU21D;53743;51.100;5.874;2023-03-19T03:45:13;13.00;90.45
66835;HTU21D;53743;51.100;5.874;2023-03-19T03:46:17;13.03;90.28
66835;HTU21D;53743;51.100;5.874;2023-03-19T03:47:20;13.02;90.24
66835;HTU21D;53743;51.100;5.874;2023-03-19T03:48:21;13.03;90.37
66835;HTU21D;53743;51.100;5.874;2023-03-19T03:49:23;13.02;90.42
66835;HTU21D;53743;51.100;5.874;2023-03-19T03:50:25;13.03;90.12
66835;HTU21D;53743;51.100;5.874;2023-03-19T03:51:29;13.06;90.09
66835;HTU21D;53743;51.100;5.874;2023-03-19T03:52:31;13.04;90.60
66835;HTU21D;53743;51.100;5.874;2023-03-19T03:53:34;13.04;90.12
66835;HTU21D;53743;51.100;5.874;2023-03-19T03:54:36;13.03;90.49
66835;HTU21D;53743;51.100;5.874;2023-03-19T03:55:38;13.01;90.25
66835;HTU21D;53743;51.100;5.874;2023-03-19T03:56:39;13.01;90.28
66835;HTU21D;53743;51.100;5.874;2023-03-19T03:57:41;13.01;90.37
66835;HTU21D;53743;51.100;5.874;2023-03-19T03:58:42;12.99;90.58
66835;HTU21D;53743;51.100;5.874;2023-03-19T03:59:45;12.96;90.92
66835;HTU21D;53743;51.100;5.874;2023-03-19T04:00:46;12.95;90.94
66835;HTU21D;53743;51.100;5.874;2023-03-19T04:01:48;12.94;91.02
66835;HTU21D;53743;51.100;5.874;2023-03-19T04:02:49;12.95;91.05
66835;HTU21D;53743;51.100;5.874;2023-03-19T04:03:51;12.94;91.31
66835;HTU21D;53743;51.100;5.874;2023-03-19T04:04:52;12.92;91.45
66835;HTU21D;53743;51.100;5.874;2023-03-19T04:05:54;12.92;91.30
66835;HTU21D;53743;51.100;5.874;2023-03-19T04:06:56;12.92;91.54
66835;HTU21D;53743;51.100;5.874;2023-03-19T04:08:09;12.91;91.89
66835;HTU21D;53743;51.100;5.874;2023-03-19T04:09:10;12.91;91.82
66835;HTU21D;53743;51.100;5.874;2023-03-19T04:10:12;12.90;91.95
66835;HTU21D;53743;51.100;5.874;2023-03-19T04:11:14;12.91;91.88
66835;HTU21D;53743;51.100;5.874;2023-03-19T04:12:16;12.90;92.12
66835;HTU21D;53743;51.100;5.874;2023-03-19T04:13:17;12.90;92.30
66835;HTU21D;53743;51.100;5.874;2023-03-19T04:14:19;12.89;92.30
66835;HTU21D;53743;51.100;5.874;2023-03-19T04:15:22;12.89;92.40
66835;HTU21D;53743;51.100;5.874;2023-03-19T04:16:26;12.89;92.30
66835;HTU21D;53743;51.100;5.874;2023-03-19T04:17:28;12.90;92.40
66835;HTU21D;53743;51.100;5.874;2023-03-19T04:18:30;12.89;92.41
66835;HTU21D;53743;51.100;5.874;2023-03-19T04:19:31;12.91;92.18
66835;HTU21D;53743;51.100;5.874;2023-03-19T04:20:33;12.91;92.47
66835;HTU21D;53743;51.100;5.874;2023-03-19T04:21:34;12.92;92.18
66835;HTU21D;53743;51.100;5.874;2023-03-19T04:22:36;12.92;92.24
66835;HTU21D;53743;51.100;5.874;2023-03-19T04:23:37;12.92;92.46
66835;HTU21D;53743;51.100;5.874;2023-03-19T04:24:39;12.93;92.46
66835;HTU21D;53743;51.100;5.874;2023-03-19T04:25:40;12.93;92.44
66835;HTU21D;53743;51.100;5.874;2023-03-19T04:26:43;12.93;92.54
66835;HTU21D;53743;51.100;5.874;2023-03-19T04:27:44;12.93;92.58
66835;HTU21D;53743;51.100;5.874;2023-03-19T04:28:46;12.93;92.65
66835;HTU21D;53743;51.100;5.874;2023-03-19T04:29:47;12.93;92.48
66835;HTU21D;53743;51.100;5.874;2023-03-19T04:30:51;12.92;92.92
66835;HTU21D;53743;51.100;5.874;2023-03-19T04:31:53;12.92;92.66
66835;HTU21D;53743;51.100;5.874;2023-03-19T04:32:55;12.93;92.82
66835;HTU21D;53743;51.100;5.874;2023-03-19T04:33:56;12.92;92.70
66835;HTU21D;53743;51.100;5.874;2023-03-19T04:34:58;12.91;92.72
66835;HTU21D;53743;51.100;5.874;2023-03-19T04:35:59;12.90;92.93
66835;HTU21D;53743;51.100;5.874;2023-03-19T04:37:01;12.89;92.80
66835;HTU21D;53743;51.100;5.874;2023-03-19T04:38:04;12.91;92.98
66835;HTU21D;53743;51.100;5.874;2023-03-19T04:39:05;12.90;93.30
66835;HTU21D;53743;51.100;5.874;2023-03-19T04:40:09;12.91;93.23
66835;HTU21D;53743;51.100;5.874;2023-03-19T04:41:12;12.92;93.12
66835;HTU21D;53743;51.100;5.874;2023-03-19T04:42:24;12.90;93.33
66835;HTU21D;53743;51.100;5.874;2023-03-19T04:43:40;12.89;93.03
66835;HTU21D;53743;51.100;5.874;2023-03-19T04:44:42;12.90;93.49
66835;HTU21D;53743;51.100;5.874;2023-03-19T04:45:45;12.90;93.55
66835;HTU21D;53743;51.100;5.874;2023-03-19T04:46:48;12.89;93.43
66835;HTU21D;53743;51.100;5.874;2023-03-19T04:47:51;12.90;93.48
66835;HTU21D;53743;51.100;5.874;2023-03-19T04:48:53;12.89;93.29
66835;HTU21D;53743;51.100;5.874;2023-03-19T04:49:55;12.91;93.43
66835;HTU21D;53743;51.100;5.874;2023-03-19T04:50:59;12.89;93.62
66835;HTU21D;53743;51.100;5.874;2023-03-19T04:52:00;12.90;93.76
66835;HTU21D;53743;51.100;5.874;2023-03-19T04:53:02;12.92;93.33
66835;HTU21D;53743;51.100;5.874;2023-03-19T04:54:03;12.92;93.26
66835;HTU21D;53743;51.100;5.874;2023-03-19T04:55:06;12.94;93.27
66835;HTU21D;53743;51.100;5.874;2023-03-19T04:56:19;12.94;93.56
66835;HTU21D;53743;51.100;5.874;2023-03-19T04:57:21;12.97;93.61
66835;HTU21D;53743;51.100;5.874;2023-03-19T04:58:24;12.99;93.64
66835;HTU21D;53743;51.100;5.874;2023-03-19T04:59:32;13.02;93.49
66835;HTU21D;53743;51.100;5.874;2023-03-19T05:00:34;13.02;93.53
66835;HTU21D;53743;51.100;5.874;2023-03-19T05:01:36;13.04;93.49
66835;HTU21D;53743;51.100;5.874;2023-03-19T05:02:41;13.04;93.37
66835;HTU21D;53743;51.100;5.874;2023-03-19T05:03:44;13.06;93.12
66835;HTU21D;53743;51.100;5.874;2023-03-19T05:04:45;13.04;0.00
66835;HTU21D;53743;51.100;5.874;2023-03-19T05:05:48;13.05;93.33
66835;HTU21D;53743;51.100;5.874;2023-03-19T05:06:50;13.05;93.15
66835;HTU21D;53743;51.100;5.874;2023-03-19T05:07:52;13.05;93.38
66835;HTU21D;53743;51.100;5.874;2023-03-19T05:08:52;13.06;93.36
66835;HTU21D;53743;51.100;5.874;2023-03-19T05:09:56;13.06;0.00
66835;HTU21D;53743;51.100;5.874;2023-03-19T05:10:57;13.06;93.11
66835;HTU21D;53743;51.100;5.874;2023-03-19T05:12:01;13.08;93.17
66835;HTU21D;53743;51.100;5.874;2023-03-19T05:13:06;13.06;93.30
66835;HTU21D;53743;51.100;5.874;2023-03-19T05:14:12;13.04;93.51
66835;HTU21D;53743;51.100;5.874;2023-03-19T05:15:29;13.03;93.26
66835;HTU21D;53743;51.100;5.874;2023-03-19T05:16:38;13.03;93.50
66835;HTU21D;53743;51.100;5.874;2023-03-19T05:17:41;13.03;93.37
66835;HTU21D;53743;51.100;5.874;2023-03-19T05:18:54;13.03;93.24
66835;HTU21D;53743;51.100;5.874;2023-03-19T05:19:56;13.03;93.56
66835;HTU21D;53743;51.100;5.874;2023-03-19T05:20:57;13.04;93.57
66835;HTU21D;53743;51.100;5.874;2023-03-19T05:22:00;13.04;93.40
66835;HTU21D;53743;51.100;5.874;2023-03-19T05:23:02;13.05;93.65
66835;HTU21D;53743;51.100;5.874;2023-03-19T05:24:20;13.07;93.64
66835;HTU21D;53743;51.100;5.874;2023-03-19T05:25:21;13.08;93.44
66835;HTU21D;53743;51.100;5.874;2023-03-19T05:26:23;13.09;93.53
66835;HTU21D;53743;51.100;5.874;2023-03-19T05:27:51;13.11;93.28
66835;HTU21D;53743;51.100;5.874;2023-03-19T05:28:56;13.10;93.44
66835;HTU21D;53743;51.100;5.874;2023-03-19T05:30:08;13.11;93.30
66835;HTU21D;53743;51.100;5.874;2023-03-19T05:31:30;13.12;93.37
66835;HTU21D;53743;51.100;5.874;2023-03-19T05:32:32;13.11;93.22
66835;HTU21D;53743;51.100;5.874;2023-03-19T05:33:37;13.11;93.14
66835;HTU21D;53743;51.100;5.874;2023-03-19T05:34:40;13.11;93.17
66835;HTU21D;53743;51.100;5.874;2023-03-19T05:35:41;13.10;93.33
66835;HTU21D;53743;51.100;5.874;2023-03-19T05:36:50;13.10;93.39
66835;HTU21D;53743;51.100;5.874;2023-03-19T05:37:52;13.09;93.14
66835;HTU21D;53743;51.100;5.874;2023-03-19T05:38:55;13.10;93.37
66835;HTU21D;53743;51.100;5.874;2023-03-19T05:40:06;13.06;93.17
66835;HTU21D;53743;51.100;5.874;2023-03-19T05:41:09;13.06;93.14
66835;HTU21D;53743;51.100;5.874;2023-03-19T05:42:21;13.07;93.40
66835;HTU21D;53743;51.100;5.874;2023-03-19T05:43:22;13.07;93.35
66835;HTU21D;53743;51.100;5.874;2023-03-19T05:44:24;13.07;93.31
66835;HTU21D;53743;51.100;5.874;2023-03-19T05:45:32;13.08;93.30
66835;HTU21D;53743;51.100;5.874;2023-03-19T05:46:42;13.07;93.38
66835;HTU21D;53743;51.100;5.874;2023-03-19T05:47:46;13.07;93.11
66835;HTU21D;53743;51.100;5.874;2023-03-19T05:48:51;13.06;93.11
66835;HTU21D;53743;51.100;5.874;2023-03-19T05:49:51;13.04;93.07
66835;HTU21D;53743;51.100;5.874;2023-03-19T05:50:54;13.03;93.37
66835;HTU21D;53743;51.100;5.874;2023-03-19T05:51:57;13.04;93.27
66835;HTU21D;53743;51.100;5.874;2023-03-19T05:52:59;13.02;93.40
66835;HTU21D;53743;51.100;5.874;2023-03-19T05:54:00;13.01;93.08
66835;HTU21D;53743;51.100;5.874;2023-03-19T05:55:12;13.00;93.39
66835;HTU21D;53743;51.100;5.874;2023-03-19T05:56:20;12.97;93.12
66835;HTU21D;53743;51.100;5.874;2023-03-19T05:57:41;13.01;93.07
66835;HTU21D;53743;51.100;5.874;2023-03-19T05:58:47;12.96;93.26
66835;HTU21D;53743;51.100;5.874;2023-03-19T05:59:53;12.96;93.40
66835;HTU21D;53743;51.100;5.874;2023-03-19T06:01:07;12.91;93.98
66835;HTU21D;53743;51.100;5.874;2023-03-19T06:02:09;12.87;93.77
66835;HTU21D;53743;51.100;5.874;2023-03-19T06:03:12;12.86;93.84
66835;HTU21D;53743;51.100;5.874;2023-03-19T06:04:24;12.84;93.98
66835;HTU21D;53743;51.100;5.874;2023-03-19T06:05:25;12.84;93.67
66835;HTU21D;53743;51.100;5.874;2023-03-19T06:06:32;12.84;93.71
66835;HTU21D;53743;51.100;5.874;2023-03-19T06:07:33;12.84;94.14
66835;HTU21D;53743;51.100;5.874;2023-03-19T06:08:35;12.81;94.12
66835;HTU21D;53743;51.100;5.874;2023-03-19T06:09:56;12.82;94.18
66835;HTU21D;53743;51.100;5.874;2023-03-19T06:10:58;12.80;94.56
66835;HTU21D;53743;51.100;5.874;2023-03-19T06:12:00;12.81;94.14
66835;HTU21D;53743;51.100;5.874;2023-03-19T06:13:17;12.82;94.15
66835;HTU21D;53743;51.100;5.874;2023-03-19T06:14:27;12.81;94.98
66835;HTU21D;53743;51.100;5.874;2023-03-19T06:15:49;12.85;94.51
66835;HTU21D;53743;51.100;5.874;2023-03-19T06:17:06;12.86;94.44
66835;HTU21D;53743;51.100;5.874;2023-03-19T06:18:09;12.85;94.85
66835;HTU21D;53743;51.100;5.874;2023-03-19T06:19:11;12.89;94.73
66835;HTU21D;53743;51.100;5.874;2023-03-19T06:20:14;12.92;94.51
66835;HTU21D;53743;51.100;5.874;2023-03-19T06:21:16;12.94;94.33
66835;HTU21D;53743;51.100;5.874;2023-03-19T06:22:17;12.96;94.63
66835;HTU21D;53743;51.100;5.874;2023-03-19T06:23:19;12.97;94.58
66835;HTU21D;53743;51.100;5.874;2023-03-19T06:24:20;12.99;94.69
66835;HTU21D;53743;51.100;5.874;2023-03-19T06:25:22;13.03;94.71
66835;HTU21D;53743;51.100;5.874;2023-03-19T06:26:25;13.03;94.27
66835;HTU21D;53743;51.100;5.874;2023-03-19T06:27:30;13.06;94.35
66835;HTU21D;53743;51.100;5.874;2023-03-19T06:28:43;13.10;94.38
66835;HTU21D;53743;51.100;5.874;2023-03-19T06:29:44;13.10;94.47
66835;HTU21D;53743;51.100;5.874;2023-03-19T06:30:53;13.14;94.49
66835;HTU21D;53743;51.100;5.874;2023-03-19T06:32:15;13.19;94.48
66835;HTU21D;53743;51.100;5.874;2023-03-19T06:33:17;13.22;94.17
66835;HTU21D;53743;51.100;5.874;2023-03-19T06:34:18;13.25;94.40
66835;HTU21D;53743;51.100;5.874;2023-03-19T06:35:22;13.29;94.27
66835;HTU21D;53743;51.100;5.874;2023-03-19T06:36:23;13.33;93.91
66835;HTU21D;53743;51.100;5.874;2023-03-19T06:37:26;13.34;94.18
66835;HTU21D;53743;51.100;5.874;2023-03-19T06:38:27;13.38;93.51
66835;HTU21D;53743;51.100;5.874;2023-03-19T06:39:29;13.41;93.53
66835;HTU21D;53743;51.100;5.874;2023-03-19T06:40:31;13.44;93.56
66835;HTU21D;53743;51.100;5.874;2023-03-19T06:41:32;13.46;93.46
66835;HTU21D;53743;51.100;5.874;2023-03-19T06:42:45;13.48;93.28